sensor_id;sensor_type;location;lat;lon;timestamp;temperature;humidity
70051;SHT30;57391;51.306;22.680;2023-08-31T00:00:08;19.48;78.81
70051;SHT30;57391;51.306;22.680;2023-08-31T00:02:58;19.49;78.84
70051;SHT30;57391;51.306;22.680;2023-08-31T00:05:26;19.49;78.72
70051;SHT30;57391;51.306;22.680;2023-08-31T00:07:55;19.50;78.63
70051;SHT30;57391;51.306;22.680;2023-08-31T00:10:22;19.50;78.54
70051;SHT30;57391;51.306;22.680;2023-08-31T00:12:49;19.48;78.42
70051;SHT30;57391;51.306;22.680;2023-08-31T00:15:17;19.48;78.40
70051;SHT30;57391;51.306;22.680;2023-08-31T00:17:44;19.47;78.48
70051;SHT30;57391;51.306;22.680;2023-08-31T00:20:11;19.48;78.60
70051;SHT30;57391;51.306;22.680;2023-08-31T00:22:39;19.49;78.61
70051;SHT30;57391;51.306;22.680;2023-08-31T00:25:06;19.49;78.61
70051;SHT30;57391;51.306;22.680;2023-08-31T00:27:34;19.49;78.60
70051;SHT30;57391;51.306;22.680;2023-08-31T00:30:04;19.47;78.68
70051;SHT30;57391;51.306;22.680;2023-08-31T00:32:34;19.49;78.78
70051;SHT30;57391;51.306;22.680;2023-08-31T00:35:01;19.49;78.74
70051;SHT30;57391;51.306;22.680;2023-08-31T00:37:30;19.49;78.72
70051;SHT30;57391;51.306;22.680;2023-08-31T00:39:57;19.49;78.73
70051;SHT30;57391;51.306;22.680;2023-08-31T00:42:23;19.48;78.81
70051;SHT30;57391;51.306;22.680;2023-08-31T00:44:51;19.47;78.80
70051;SHT30;57391;51.306;22.680;2023-08-31T00:47:18;19.45;78.84
70051;SHT30;57391;51.306;22.680;2023-08-31T00:49:46;19.43;78.80
70051;SHT30;57391;51.306;22.680;2023-08-31T00:52:14;19.41;78.79
70051;SHT30;57391;51.306;22.680;2023-08-31T00:54:42;19.38;78.73
70051;SHT30;57391;51.306;22.680;2023-08-31T00:57:09;19.36;78.41
70051;SHT30;57391;51.306;22.680;2023-08-31T00:59:36;19.33;78.19
70051;SHT30;57391;51.306;22.680;2023-08-31T01:02:05;19.28;78.08
70051;SHT30;57391;51.306;22.680;2023-08-31T01:04:47;19.23;78.10
70051;SHT30;57391;51.306;22.680;2023-08-31T01:14:23;19.08;78.25
70051;SHT30;57391;51.306;22.680;2023-08-31T01:16:58;19.06;78.10
70051;SHT30;57391;51.306;22.680;2023-08-31T01:19:48;19.03;78.05
70051;SHT30;57391;51.306;22.680;2023-08-31T01:22:27;19.03;78.07
70051;SHT30;57391;51.306;22.680;2023-08-31T01:25:07;19.00;78.09
70051;SHT30;57391;51.306;22.680;2023-08-31T01:27:35;18.98;78.21
70051;SHT30;57391;51.306;22.680;2023-08-31T01:30:04;18.98;78.17
70051;SHT30;57391;51.306;22.680;2023-08-31T01:32:32;18.97;78.16
70051;SHT30;57391;51.306;22.680;2023-08-31T01:35:00;18.95;78.14
70051;SHT30;57391;51.306;22.680;2023-08-31T01:40:15;18.86;78.32
70051;SHT30;57391;51.306;22.680;2023-08-31T01:42:49;18.83;78.39
70051;SHT30;57391;51.306;22.680;2023-08-31T01:45:19;18.80;78.47
70051;SHT30;57391;51.306;22.680;2023-08-31T01:47:48;18.77;78.62
70051;SHT30;57391;51.306;22.680;2023-08-31T01:50:18;18.73;78.71
70051;SHT30;57391;51.306;22.680;2023-08-31T01:52:45;18.69;78.77
70051;SHT30;57391;51.306;22.680;2023-08-31T01:55:12;18.67;78.90
70051;SHT30;57391;51.306;22.680;2023-08-31T01:57:42;18.64;79.01
70051;SHT30;57391;51.306;22.680;2023-08-31T02:00:13;18.63;79.07
70051;SHT30;57391;51.306;22.680;2023-08-31T02:02:42;18.60;79.22
70051;SHT30;57391;51.306;22.680;2023-08-31T02:05:09;18.58;79.30
70051;SHT30;57391;51.306;22.680;2023-08-31T02:07:36;18.57;79.34
70051;SHT30;57391;51.306;22.680;2023-08-31T02:10:03;18.58;79.54
70051;SHT30;57391;51.306;22.680;2023-08-31T02:12:32;18.58;79.60
70051;SHT30;57391;51.306;22.680;2023-08-31T02:15:00;18.58;79.58
70051;SHT30;57391;51.306;22.680;2023-08-31T02:17:27;18.59;79.56
70051;SHT30;57391;51.306;22.680;2023-08-31T02:19:54;18.61;79.61
70051;SHT30;57391;51.306;22.680;2023-08-31T02:22:22;18.61;79.72
70051;SHT30;57391;51.306;22.680;2023-08-31T02:24:48;18.62;79.85
70051;SHT30;57391;51.306;22.680;2023-08-31T02:27:15;18.63;79.88
70051;SHT30;57391;51.306;22.680;2023-08-31T02:29:43;18.62;79.82
70051;SHT30;57391;51.306;22.680;2023-08-31T02:32:10;18.60;79.82
70051;SHT30;57391;51.306;22.680;2023-08-31T02:34:37;18.61;79.93
70051;SHT30;57391;51.306;22.680;2023-08-31T02:37:06;18.60;80.05
70051;SHT30;57391;51.306;22.680;2023-08-31T02:39:33;18.60;79.94
70051;SHT30;57391;51.306;22.680;2023-08-31T02:41:59;18.60;79.94
70051;SHT30;57391;51.306;22.680;2023-08-31T02:44:26;18.58;79.90
70051;SHT30;57391;51.306;22.680;2023-08-31T02:46:53;18.57;79.93
70051;SHT30;57391;51.306;22.680;2023-08-31T02:49:22;18.55;80.08
70051;SHT30;57391;51.306;22.680;2023-08-31T02:51:49;18.54;80.17
70051;SHT30;57391;51.306;22.680;2023-08-31T02:54:17;18.53;80.27
70051;SHT30;57391;51.306;22.680;2023-08-31T02:56:45;18.52;80.39
70051;SHT30;57391;51.306;22.680;2023-08-31T02:59:12;18.52;80.40
70051;SHT30;57391;51.306;22.680;2023-08-31T03:01:39;18.49;80.36
70051;SHT30;57391;51.306;22.680;2023-08-31T03:04:06;18.47;80.35
70051;SHT30;57391;51.306;22.680;2023-08-31T03:06:33;18.46;80.32
70051;SHT30;57391;51.306;22.680;2023-08-31T03:09:00;18.43;80.23
70051;SHT30;57391;51.306;22.680;2023-08-31T03:11:28;18.39;80.08
70051;SHT30;57391;51.306;22.680;2023-08-31T03:13:57;18.35;80.22
70051;SHT30;57391;51.306;22.680;2023-08-31T03:16:24;18.30;80.22
70051;SHT30;57391;51.306;22.680;2023-08-31T03:18:51;18.27;80.29
70051;SHT30;57391;51.306;22.680;2023-08-31T03:21:18;18.24;80.35
70051;SHT30;57391;51.306;22.680;2023-08-31T03:23:46;18.21;80.49
70051;SHT30;57391;51.306;22.680;2023-08-31T03:26:13;18.20;80.62
70051;SHT30;57391;51.306;22.680;2023-08-31T03:28:40;18.20;80.67
70051;SHT30;57391;51.306;22.680;2023-08-31T03:31:08;18.19;80.75
70051;SHT30;57391;51.306;22.680;2023-08-31T03:33:35;18.19;80.81
70051;SHT30;57391;51.306;22.680;2023-08-31T03:36:02;18.18;80.84
70051;SHT30;57391;51.306;22.680;2023-08-31T03:38:34;18.18;80.83
70051;SHT30;57391;51.306;22.680;2023-08-31T03:41:04;18.18;80.81
70051;SHT30;57391;51.306;22.680;2023-08-31T03:43:32;18.19;80.88
70051;SHT30;57391;51.306;22.680;2023-08-31T03:46:00;18.20;80.94
70051;SHT30;57391;51.306;22.680;2023-08-31T03:48:27;18.21;80.92
70051;SHT30;57391;51.306;22.680;2023-08-31T03:50:54;18.22;80.89
70051;SHT30;57391;51.306;22.680;2023-08-31T03:53:22;18.22;80.92
70051;SHT30;57391;51.306;22.680;2023-08-31T03:55:51;18.21;81.00
70051;SHT30;57391;51.306;22.680;2023-08-31T03:58:18;18.21;80.97
70051;SHT30;57391;51.306;22.680;2023-08-31T04:00:49;18.19;81.09
70051;SHT30;57391;51.306;22.680;2023-08-31T04:03:18;18.18;81.28
70051;SHT30;57391;51.306;22.680;2023-08-31T04:05:47;18.16;81.11
70051;SHT30;57391;51.306;22.680;2023-08-31T04:08:14;18.16;81.11
70051;SHT30;57391;51.306;22.680;2023-08-31T04:10:41;18.14;81.11
70051;SHT30;57391;51.306;22.680;2023-08-31T04:13:08;18.13;81.14
70051;SHT30;57391;51.306;22.680;2023-08-31T04:15:34;18.11;81.23
70051;SHT30;57391;51.306;22.680;2023-08-31T04:18:01;18.12;81.29
70051;SHT30;57391;51.306;22.680;2023-08-31T04:20:28;18.12;81.46
70051;SHT30;57391;51.306;22.680;2023-08-31T04:22:55;18.15;81.46
70051;SHT30;57391;51.306;22.680;2023-08-31T04:25:22;18.17;81.40
70051;SHT30;57391;51.306;22.680;2023-08-31T04:27:49;18.19;81.21
70051;SHT30;57391;51.306;22.680;2023-08-31T04:30:16;18.19;81.16
70051;SHT30;57391;51.306;22.680;2023-08-31T04:32:42;18.18;81.09
70051;SHT30;57391;51.306;22.680;2023-08-31T04:35:10;18.16;81.07
70051;SHT30;57391;51.306;22.680;2023-08-31T04:37:37;18.15;81.04
70051;SHT30;57391;51.306;22.680;2023-08-31T04:40:04;18.12;81.01
70051;SHT30;57391;51.306;22.680;2023-08-31T04:42:31;18.11;81.02
70051;SHT30;57391;51.306;22.680;2023-08-31T04:44:58;18.11;81.09
70051;SHT30;57391;51.306;22.680;2023-08-31T04:47:25;18.09;81.10
70051;SHT30;57391;51.306;22.680;2023-08-31T04:49:52;18.07;81.07
70051;SHT30;57391;51.306;22.680;2023-08-31T04:52:19;18.07;81.08
70051;SHT30;57391;51.306;22.680;2023-08-31T04:54:45;18.07;81.06
70051;SHT30;57391;51.306;22.680;2023-08-31T04:57:12;18.05;80.97
70051;SHT30;57391;51.306;22.680;2023-08-31T04:59:39;18.02;80.97
70051;SHT30;57391;51.306;22.680;2023-08-31T05:02:05;18.00;81.06
70051;SHT30;57391;51.306;22.680;2023-08-31T05:04:32;18.00;81.10
70051;SHT30;57391;51.306;22.680;2023-08-31T05:06:59;17.98;81.17
70051;SHT30;57391;51.306;22.680;2023-08-31T05:09:26;17.98;81.17
70051;SHT30;57391;51.306;22.680;2023-08-31T05:11:53;17.98;81.19
70051;SHT30;57391;51.306;22.680;2023-08-31T05:14:20;17.98;81.13
70051;SHT30;57391;51.306;22.680;2023-08-31T05:16:46;17.96;81.14
70051;SHT30;57391;51.306;22.680;2023-08-31T05:19:13;17.95;81.09
70051;SHT30;57391;51.306;22.680;2023-08-31T05:21:40;17.94;81.15
70051;SHT30;57391;51.306;22.680;2023-08-31T05:24:07;17.94;81.24
70051;SHT30;57391;51.306;22.680;2023-08-31T05:26:34;17.94;81.42
70051;SHT30;57391;51.306;22.680;2023-08-31T05:29:01;17.93;81.42
70051;SHT30;57391;51.306;22.680;2023-08-31T05:31:30;17.92;81.47
70051;SHT30;57391;51.306;22.680;2023-08-31T05:33:58;17.94;81.66
70051;SHT30;57391;51.306;22.680;2023-08-31T05:36:25;17.94;81.75
70051;SHT30;57391;51.306;22.680;2023-08-31T05:38:52;17.95;81.73
70051;SHT30;57391;51.306;22.680;2023-08-31T05:41:19;17.96;81.74
70051;SHT30;57391;51.306;22.680;2023-08-31T05:43:47;17.99;81.90
70051;SHT30;57391;51.306;22.680;2023-08-31T05:46:14;18.01;81.89
70051;SHT30;57391;51.306;22.680;2023-08-31T05:48:41;18.03;81.78
70051;SHT30;57391;51.306;22.680;2023-08-31T05:51:08;18.00;81.41
70051;SHT30;57391;51.306;22.680;2023-08-31T05:53:35;17.98;81.56
70051;SHT30;57391;51.306;22.680;2023-08-31T05:56:02;17.97;81.21
70051;SHT30;57391;51.306;22.680;2023-08-31T05:58:30;17.94;80.92
70051;SHT30;57391;51.306;22.680;2023-08-31T06:00:59;17.94;81.02
70051;SHT30;57391;51.306;22.680;2023-08-31T06:03:31;17.96;81.04
70051;SHT30;57391;51.306;22.680;2023-08-31T06:05:58;17.98;81.13
70051;SHT30;57391;51.306;22.680;2023-08-31T06:08:26;17.99;81.24
70051;SHT30;57391;51.306;22.680;2023-08-31T06:10:53;18.01;81.11
70051;SHT30;57391;51.306;22.680;2023-08-31T06:13:20;18.00;81.08
70051;SHT30;57391;51.306;22.680;2023-08-31T06:15:47;17.99;80.99
70051;SHT30;57391;51.306;22.680;2023-08-31T06:18:13;17.98;81.24
70051;SHT30;57391;51.306;22.680;2023-08-31T06:20:40;18.00;81.46
70051;SHT30;57391;51.306;22.680;2023-08-31T06:23:10;18.05;81.56
70051;SHT30;57391;51.306;22.680;2023-08-31T06:25:38;18.09;81.51
70051;SHT30;57391;51.306;22.680;2023-08-31T06:28:05;18.14;81.28
70051;SHT30;57391;51.306;22.680;2023-08-31T06:30:35;18.18;81.07
70051;SHT30;57391;51.306;22.680;2023-08-31T06:33:02;18.22;81.08
70051;SHT30;57391;51.306;22.680;2023-08-31T06:35:29;18.32;81.39
70051;SHT30;57391;51.306;22.680;2023-08-31T06:37:57;18.43;81.44
70051;SHT30;57391;51.306;22.680;2023-08-31T06:40:24;18.52;81.00
70051;SHT30;57391;51.306;22.680;2023-08-31T06:42:51;18.60;80.99
70051;SHT30;57391;51.306;22.680;2023-08-31T06:45:18;18.70;81.46
70051;SHT30;57391;51.306;22.680;2023-08-31T06:47:45;18.81;81.40
70051;SHT30;57391;51.306;22.680;2023-08-31T06:50:12;18.88;80.96
70051;SHT30;57391;51.306;22.680;2023-08-31T06:52:38;18.95;80.53
70051;SHT30;57391;51.306;22.680;2023-08-31T06:55:07;18.95;80.05
70051;SHT30;57391;51.306;22.680;2023-08-31T06:57:37;18.92;79.95
70051;SHT30;57391;51.306;22.680;2023-08-31T07:00:04;18.93;79.81
70051;SHT30;57391;51.306;22.680;2023-08-31T07:02:34;18.96;79.20
70051;SHT30;57391;51.306;22.680;2023-08-31T07:05:04;18.96;78.71
70051;SHT30;57391;51.306;22.680;2023-08-31T07:07:31;18.94;78.27
70051;SHT30;57391;51.306;22.680;2023-08-31T07:09:58;18.96;78.18
70051;SHT30;57391;51.306;22.680;2023-08-31T07:12:26;19.03;78.47
70051;SHT30;57391;51.306;22.680;2023-08-31T07:14:52;19.14;78.29
70051;SHT30;57391;51.306;22.680;2023-08-31T07:17:19;19.19;77.89
70051;SHT30;57391;51.306;22.680;2023-08-31T07:19:46;19.21;77.65
70051;SHT30;57391;51.306;22.680;2023-08-31T07:22:13;19.18;77.00
70051;SHT30;57391;51.306;22.680;2023-08-31T07:24:40;19.14;76.99
70051;SHT30;57391;51.306;22.680;2023-08-31T07:27:06;19.10;76.90
70051;SHT30;57391;51.306;22.680;2023-08-31T07:29:33;19.08;77.24
70051;SHT30;57391;51.306;22.680;2023-08-31T07:32:00;19.06;77.30
70051;SHT30;57391;51.306;22.680;2023-08-31T07:34:27;19.01;77.23
70051;SHT30;57391;51.306;22.680;2023-08-31T07:36:54;18.99;77.24
70051;SHT30;57391;51.306;22.680;2023-08-31T07:39:21;18.97;77.22
70051;SHT30;57391;51.306;22.680;2023-08-31T07:41:47;18.98;77.38
70051;SHT30;57391;51.306;22.680;2023-08-31T07:44:14;19.00;77.47
70051;SHT30;57391;51.306;22.680;2023-08-31T07:46:41;19.01;76.70
70051;SHT30;57391;51.306;22.680;2023-08-31T07:49:08;18.98;76.27
70051;SHT30;57391;51.306;22.680;2023-08-31T07:51:35;19.00;76.68
70051;SHT30;57391;51.306;22.680;2023-08-31T07:54:01;19.05;76.82
70051;SHT30;57391;51.306;22.680;2023-08-31T07:56:29;19.12;77.07
70051;SHT30;57391;51.306;22.680;2023-08-31T07:58:56;19.17;76.85
70051;SHT30;57391;51.306;22.680;2023-08-31T08:01:23;19.17;75.65
70051;SHT30;57391;51.306;22.680;2023-08-31T08:03:50;19.16;75.88
70051;SHT30;57391;51.306;22.680;2023-08-31T08:06:17;19.18;75.81
70051;SHT30;57391;51.306;22.680;2023-08-31T08:08:44;19.28;75.99
70051;SHT30;57391;51.306;22.680;2023-08-31T08:11:11;19.39;75.83
70051;SHT30;57391;51.306;22.680;2023-08-31T08:13:38;19.54;76.06
70051;SHT30;57391;51.306;22.680;2023-08-31T08:16:04;19.67;75.04
70051;SHT30;57391;51.306;22.680;2023-08-31T08:18:31;19.79;74.93
70051;SHT30;57391;51.306;22.680;2023-08-31T08:20:58;19.97;75.10
70051;SHT30;57391;51.306;22.680;2023-08-31T08:23:25;20.21;75.24
70051;SHT30;57391;51.306;22.680;2023-08-31T08:25:52;20.39;73.87
70051;SHT30;57391;51.306;22.680;2023-08-31T08:28:19;20.53;73.04
70051;SHT30;57391;51.306;22.680;2023-08-31T08:30:45;20.68;72.56
70051;SHT30;57391;51.306;22.680;2023-08-31T08:33:12;20.85;72.12
70051;SHT30;57391;51.306;22.680;2023-08-31T08:35:39;20.91;70.90
70051;SHT30;57391;51.306;22.680;2023-08-31T08:38:06;20.94;70.83
70051;SHT30;57391;51.306;22.680;2023-08-31T08:40:34;20.92;70.47
70051;SHT30;57391;51.306;22.680;2023-08-31T08:43:01;20.86;70.88
70051;SHT30;57391;51.306;22.680;2023-08-31T08:45:35;20.85;70.84
70051;SHT30;57391;51.306;22.680;2023-08-31T08:48:05;20.84;70.45
70051;SHT30;57391;51.306;22.680;2023-08-31T08:50:33;20.80;70.41
70051;SHT30;57391;51.306;22.680;2023-08-31T08:53:02;20.76;69.60
70051;SHT30;57391;51.306;22.680;2023-08-31T08:55:31;20.70;69.50
70051;SHT30;57391;51.306;22.680;2023-08-31T08:57:59;20.71;69.96
70051;SHT30;57391;51.306;22.680;2023-08-31T09:00:26;20.88;69.92
70051;SHT30;57391;51.306;22.680;2023-08-31T09:02:54;21.07;69.62
70051;SHT30;57391;51.306;22.680;2023-08-31T09:05:22;21.29;69.12
70051;SHT30;57391;51.306;22.680;2023-08-31T09:10:42;21.57;67.01
70051;SHT30;57391;51.306;22.680;2023-08-31T09:13:11;21.58;66.90
70051;SHT30;57391;51.306;22.680;2023-08-31T09:15:43;21.61;67.62
70051;SHT30;57391;51.306;22.680;2023-08-31T09:20:54;21.64;67.84
70051;SHT30;57391;51.306;22.680;2023-08-31T09:23:23;21.60;67.59
70051;SHT30;57391;51.306;22.680;2023-08-31T09:25:51;21.56;67.23
70051;SHT30;57391;51.306;22.680;2023-08-31T09:28:21;21.48;67.53
70051;SHT30;57391;51.306;22.680;2023-08-31T09:30:55;21.39;67.43
70051;SHT30;57391;51.306;22.680;2023-08-31T09:33:34;21.30;66.95
70051;SHT30;57391;51.306;22.680;2023-08-31T09:36:06;21.29;66.89
70051;SHT30;57391;51.306;22.680;2023-08-31T09:38:43;21.39;67.53
70051;SHT30;57391;51.306;22.680;2023-08-31T09:41:11;21.65;67.81
70051;SHT30;57391;51.306;22.680;2023-08-31T09:43:39;21.99;67.69
70051;SHT30;57391;51.306;22.680;2023-08-31T09:46:06;22.28;67.41
70051;SHT30;57391;51.306;22.680;2023-08-31T09:48:34;22.40;65.70
70051;SHT30;57391;51.306;22.680;2023-08-31T09:51:04;22.44;65.72
70051;SHT30;57391;51.306;22.680;2023-08-31T09:53:31;22.50;65.31
70051;SHT30;57391;51.306;22.680;2023-08-31T09:55:59;22.53;64.30
70051;SHT30;57391;51.306;22.680;2023-08-31T09:58:27;22.56;63.53
70051;SHT30;57391;51.306;22.680;2023-08-31T10:00:57;22.56;62.91
70051;SHT30;57391;51.306;22.680;2023-08-31T10:03:25;22.71;63.95
70051;SHT30;57391;51.306;22.680;2023-08-31T10:05:53;22.91;63.39
70051;SHT30;57391;51.306;22.680;2023-08-31T10:08:22;23.06;63.67
70051;SHT30;57391;51.306;22.680;2023-08-31T10:10:51;23.14;62.95
70051;SHT30;57391;51.306;22.680;2023-08-31T10:13:19;23.15;62.78
70051;SHT30;57391;51.306;22.680;2023-08-31T10:15:47;23.11;63.47
70051;SHT30;57391;51.306;22.680;2023-08-31T10:18:15;23.13;63.28
70051;SHT30;57391;51.306;22.680;2023-08-31T10:20:43;23.15;63.22
70051;SHT30;57391;51.306;22.680;2023-08-31T10:23:11;23.23;63.93
70051;SHT30;57391;51.306;22.680;2023-08-31T10:28:18;23.37;63.36
70051;SHT30;57391;51.306;22.680;2023-08-31T10:33:33;23.60;62.16
70051;SHT30;57391;51.306;22.680;2023-08-31T10:36:34;23.68;62.35
70051;SHT30;57391;51.306;22.680;2023-08-31T10:39:20;23.75;62.22
70051;SHT30;57391;51.306;22.680;2023-08-31T10:41:52;23.68;60.05
70051;SHT30;57391;51.306;22.680;2023-08-31T10:44:21;23.52;59.70
70051;SHT30;57391;51.306;22.680;2023-08-31T10:46:53;23.40;59.91
70051;SHT30;57391;51.306;22.680;2023-08-31T10:49:21;23.29;59.48
70051;SHT30;57391;51.306;22.680;2023-08-31T10:51:53;23.20;59.63
70051;SHT30;57391;51.306;22.680;2023-08-31T10:54:23;23.10;59.95
70051;SHT30;57391;51.306;22.680;2023-08-31T10:59:53;23.04;59.58
70051;SHT30;57391;51.306;22.680;2023-08-31T11:07:33;23.24;58.21
70051;SHT30;57391;51.306;22.680;2023-08-31T11:10:08;23.26;59.03
70051;SHT30;57391;51.306;22.680;2023-08-31T11:12:55;23.31;57.80
70051;SHT30;57391;51.306;22.680;2023-08-31T11:15:25;23.33;57.79
70051;SHT30;57391;51.306;22.680;2023-08-31T11:17:54;23.40;58.56
70051;SHT30;57391;51.306;22.680;2023-08-31T11:20:23;23.38;57.77
70051;SHT30;57391;51.306;22.680;2023-08-31T11:22:57;23.34;58.48
70051;SHT30;57391;51.306;22.680;2023-08-31T11:25:24;23.34;58.17
70051;SHT30;57391;51.306;22.680;2023-08-31T11:27:55;23.34;57.33
70051;SHT30;57391;51.306;22.680;2023-08-31T11:30:24;23.33;57.37
70051;SHT30;57391;51.306;22.680;2023-08-31T11:32:53;23.25;57.48
70051;SHT30;57391;51.306;22.680;2023-08-31T11:35:21;23.18;57.04
70051;SHT30;57391;51.306;22.680;2023-08-31T11:37:50;23.15;57.82
70051;SHT30;57391;51.306;22.680;2023-08-31T11:40:22;23.19;58.25
70051;SHT30;57391;51.306;22.680;2023-08-31T11:42:49;23.35;59.33
70051;SHT30;57391;51.306;22.680;2023-08-31T11:45:18;23.58;59.95
70051;SHT30;57391;51.306;22.680;2023-08-31T11:47:49;23.87;59.25
70051;SHT30;57391;51.306;22.680;2023-08-31T11:50:17;24.09;56.90
70051;SHT30;57391;51.306;22.680;2023-08-31T11:52:46;24.26;57.22
70051;SHT30;57391;51.306;22.680;2023-08-31T11:55:14;24.45;56.70
70051;SHT30;57391;51.306;22.680;2023-08-31T11:57:49;24.55;55.01
70051;SHT30;57391;51.306;22.680;2023-08-31T12:00:18;24.67;54.57
70051;SHT30;57391;51.306;22.680;2023-08-31T12:02:59;24.77;54.72
70051;SHT30;57391;51.306;22.680;2023-08-31T12:05:28;24.77;54.82
70051;SHT30;57391;51.306;22.680;2023-08-31T12:08:10;24.82;55.29
70051;SHT30;57391;51.306;22.680;2023-08-31T12:10:40;24.92;54.08
70051;SHT30;57391;51.306;22.680;2023-08-31T12:13:08;24.96;54.19
70051;SHT30;57391;51.306;22.680;2023-08-31T12:15:36;24.98;53.57
70051;SHT30;57391;51.306;22.680;2023-08-31T12:18:21;24.97;52.96
70051;SHT30;57391;51.306;22.680;2023-08-31T12:20:49;24.92;51.55
70051;SHT30;57391;51.306;22.680;2023-08-31T12:23:18;24.80;52.51
70051;SHT30;57391;51.306;22.680;2023-08-31T12:25:49;24.74;53.09
70051;SHT30;57391;51.306;22.680;2023-08-31T12:28:18;24.69;52.92
70051;SHT30;57391;51.306;22.680;2023-08-31T12:30:49;24.70;53.25
70051;SHT30;57391;51.306;22.680;2023-08-31T12:33:19;24.76;53.74
70051;SHT30;57391;51.306;22.680;2023-08-31T12:35:47;24.69;52.89
70051;SHT30;57391;51.306;22.680;2023-08-31T12:38:14;24.59;53.43
70051;SHT30;57391;51.306;22.680;2023-08-31T12:40:41;24.56;53.54
70051;SHT30;57391;51.306;22.680;2023-08-31T12:43:08;24.54;53.13
70051;SHT30;57391;51.306;22.680;2023-08-31T12:45:36;24.60;53.78
70051;SHT30;57391;51.306;22.680;2023-08-31T12:48:04;24.67;54.15
70051;SHT30;57391;51.306;22.680;2023-08-31T12:50:32;24.65;52.87
70051;SHT30;57391;51.306;22.680;2023-08-31T12:52:58;24.59;53.40
70051;SHT30;57391;51.306;22.680;2023-08-31T12:55:25;24.54;53.17
70051;SHT30;57391;51.306;22.680;2023-08-31T12:57:52;24.48;52.95
70051;SHT30;57391;51.306;22.680;2023-08-31T13:00:19;24.42;53.09
70051;SHT30;57391;51.306;22.680;2023-08-31T13:02:46;24.42;51.75
70051;SHT30;57391;51.306;22.680;2023-08-31T13:05:13;24.41;51.17
70051;SHT30;57391;51.306;22.680;2023-08-31T13:07:40;24.38;52.12
70051;SHT30;57391;51.306;22.680;2023-08-31T13:10:07;24.34;52.60
70051;SHT30;57391;51.306;22.680;2023-08-31T13:12:34;24.26;52.44
70051;SHT30;57391;51.306;22.680;2023-08-31T13:15:01;24.27;53.14
70051;SHT30;57391;51.306;22.680;2023-08-31T13:17:28;24.26;53.00
70051;SHT30;57391;51.306;22.680;2023-08-31T13:19:56;24.31;53.09
70051;SHT30;57391;51.306;22.680;2023-08-31T13:22:23;24.38;52.71
70051;SHT30;57391;51.306;22.680;2023-08-31T13:24:52;24.42;52.31
70051;SHT30;57391;51.306;22.680;2023-08-31T13:27:18;24.32;52.00
70051;SHT30;57391;51.306;22.680;2023-08-31T13:29:45;24.30;53.01
70051;SHT30;57391;51.306;22.680;2023-08-31T13:32:12;24.30;51.61
70051;SHT30;57391;51.306;22.680;2023-08-31T13:34:39;24.31;51.74
70051;SHT30;57391;51.306;22.680;2023-08-31T13:37:06;24.35;51.86
70051;SHT30;57391;51.306;22.680;2023-08-31T13:39:34;24.35;52.07
70051;SHT30;57391;51.306;22.680;2023-08-31T13:42:03;24.29;51.62
70051;SHT30;57391;51.306;22.680;2023-08-31T13:44:33;24.20;51.50
70051;SHT30;57391;51.306;22.680;2023-08-31T13:47:00;24.15;50.69
70051;SHT30;57391;51.306;22.680;2023-08-31T13:49:29;24.14;52.04
70051;SHT30;57391;51.306;22.680;2023-08-31T13:51:56;24.21;51.77
70051;SHT30;57391;51.306;22.680;2023-08-31T13:54:23;24.33;51.78
70051;SHT30;57391;51.306;22.680;2023-08-31T13:56:51;24.37;51.26
70051;SHT30;57391;51.306;22.680;2023-08-31T13:59:18;24.28;51.11
70051;SHT30;57391;51.306;22.680;2023-08-31T14:01:45;24.19;51.12
70051;SHT30;57391;51.306;22.680;2023-08-31T14:04:12;24.06;50.91
70051;SHT30;57391;51.306;22.680;2023-08-31T14:06:39;23.95;50.96
70051;SHT30;57391;51.306;22.680;2023-08-31T14:09:05;23.86;51.61
70051;SHT30;57391;51.306;22.680;2023-08-31T14:11:34;23.79;52.54
70051;SHT30;57391;51.306;22.680;2023-08-31T14:14:05;23.80;52.21
70051;SHT30;57391;51.306;22.680;2023-08-31T14:16:37;23.80;52.46
70051;SHT30;57391;51.306;22.680;2023-08-31T14:19:04;23.79;51.72
70051;SHT30;57391;51.306;22.680;2023-08-31T14:21:32;23.73;51.98
70051;SHT30;57391;51.306;22.680;2023-08-31T14:23:59;23.66;51.95
70051;SHT30;57391;51.306;22.680;2023-08-31T14:26:26;23.59;51.99
70051;SHT30;57391;51.306;22.680;2023-08-31T14:28:52;23.56;52.20
70051;SHT30;57391;51.306;22.680;2023-08-31T14:31:19;23.56;51.89
70051;SHT30;57391;51.306;22.680;2023-08-31T14:33:46;23.59;52.02
70051;SHT30;57391;51.306;22.680;2023-08-31T14:36:14;23.62;51.96
70051;SHT30;57391;51.306;22.680;2023-08-31T14:38:42;23.67;52.08
70051;SHT30;57391;51.306;22.680;2023-08-31T14:41:09;23.72;52.11
70051;SHT30;57391;51.306;22.680;2023-08-31T14:43:36;23.69;52.83
70051;SHT30;57391;51.306;22.680;2023-08-31T14:46:03;23.66;53.39
70051;SHT30;57391;51.306;22.680;2023-08-31T14:48:30;23.65;53.28
70051;SHT30;57391;51.306;22.680;2023-08-31T14:50:58;23.62;53.78
70051;SHT30;57391;51.306;22.680;2023-08-31T14:53:26;23.58;54.16
70051;SHT30;57391;51.306;22.680;2023-08-31T14:55:54;23.54;53.97
70051;SHT30;57391;51.306;22.680;2023-08-31T14:58:21;23.54;54.05
70051;SHT30;57391;51.306;22.680;2023-08-31T15:00:47;23.57;53.41
70051;SHT30;57391;51.306;22.680;2023-08-31T15:03:14;23.57;53.70
70051;SHT30;57391;51.306;22.680;2023-08-31T15:05:42;23.59;53.81
70051;SHT30;57391;51.306;22.680;2023-08-31T15:08:09;23.58;54.54
70051;SHT30;57391;51.306;22.680;2023-08-31T15:10:37;23.57;54.32
70051;SHT30;57391;51.306;22.680;2023-08-31T15:13:05;23.57;54.01
70051;SHT30;57391;51.306;22.680;2023-08-31T15:15:32;23.51;53.65
70051;SHT30;57391;51.306;22.680;2023-08-31T15:18:02;23.41;54.28
70051;SHT30;57391;51.306;22.680;2023-08-31T15:20:29;23.35;54.91
70051;SHT30;57391;51.306;22.680;2023-08-31T15:22:56;23.25;54.24
70051;SHT30;57391;51.306;22.680;2023-08-31T15:25:23;23.15;54.50
70051;SHT30;57391;51.306;22.680;2023-08-31T15:27:49;23.08;54.96
70051;SHT30;57391;51.306;22.680;2023-08-31T15:30:16;23.00;55.47
70051;SHT30;57391;51.306;22.680;2023-08-31T15:32:43;22.94;55.76
70051;SHT30;57391;51.306;22.680;2023-08-31T15:35:10;22.90;56.01
70051;SHT30;57391;51.306;22.680;2023-08-31T15:37:37;22.86;56.03
70051;SHT30;57391;51.306;22.680;2023-08-31T15:40:04;22.83;56.15
70051;SHT30;57391;51.306;22.680;2023-08-31T15:42:31;22.83;56.57
70051;SHT30;57391;51.306;22.680;2023-08-31T15:44:58;22.82;56.27
70051;SHT30;57391;51.306;22.680;2023-08-31T15:47:25;22.83;56.19
70051;SHT30;57391;51.306;22.680;2023-08-31T15:49:52;22.83;55.83